Time;durP1;ratioP1;P1;durP2;ratioP2;P2;SDS_P1;SDS_P2;PMS_P1;PMS_P2;Temp;Humidity;BMP_temperature;BMP_pressure;BME280_temperature;BME280_humidity;BME280_pressure;Samples;Min_cycle;Max_cycle;Signal;HPM_P1;HPM_P2
2022/03/29 00:00:36;;;;;;;21.35;13.55;;;;;;;6.54;100.00;100716.41;5251268;28;20039;-78
2022/03/29 00:03:07;;;;;;;22.00;13.85;;;;;;;6.58;100.00;100709.44;5254947;28;20043;-78
2022/03/29 00:05:38;;;;;;;23.13;13.93;;;;;;;6.60;100.00;100705.06;5250951;28;20025;-78
2022/03/29 00:08:08;;;;;;;23.30;13.85;;;;;;;6.64;100.00;100709.31;5252692;28;20027;-78
2022/03/29 00:10:39;;;;;;;22.55;13.32;;;;;;;6.63;100.00;100689.44;5255140;28;20636;-78
2022/03/29 00:13:09;;;;;;;23.70;13.43;;;;;;;6.61;100.00;100688.63;5251088;28;20032;-78
2022/03/29 00:15:39;;;;;;;25.00;14.20;;;;;;;6.47;100.00;100693.19;5255003;28;20120;-78
2022/03/29 00:18:10;;;;;;;21.00;13.70;;;;;;;6.55;100.00;100689.56;5251055;28;20024;-78
2022/03/29 00:20:41;;;;;;;23.30;14.07;;;;;;;6.49;100.00;100679.31;5254874;28;20367;-78
2022/03/29 00:23:11;;;;;;;23.20;14.23;;;;;;;6.60;100.00;100676.53;5251171;28;20108;-78
2022/03/29 00:25:41;;;;;;;21.85;13.60;;;;;;;6.70;100.00;100672.84;5255098;28;20019;-78
2022/03/29 00:28:11;;;;;;;24.73;14.15;;;;;;;6.74;100.00;100677.13;5256457;28;20106;-78
2022/03/29 00:30:42;;;;;;;22.23;14.45;;;;;;;6.72;100.00;100671.94;5255159;28;20028;-78
2022/03/29 00:33:12;;;;;;;24.65;15.43;;;;;;;6.73;100.00;100667.63;5254915;28;20036;-78
2022/03/29 00:35:43;;;;;;;25.90;15.57;;;;;;;6.70;100.00;100665.94;5250264;28;20040;-78
2022/03/29 00:38:14;;;;;;;22.67;14.20;;;;;;;6.69;100.00;100661.63;5250679;28;20049;-78
2022/03/29 00:40:44;;;;;;;22.73;14.57;;;;;;;6.70;100.00;100657.28;5251672;28;20428;-78
2022/03/29 00:43:15;;;;;;;21.95;14.40;;;;;;;6.84;100.00;100661.34;5256219;28;20024;-78
2022/03/29 00:45:45;;;;;;;24.67;14.48;;;;;;;7.01;100.00;100648.88;5251233;28;20032;-78
2022/03/29 00:48:16;;;;;;;23.52;13.80;;;;;;;7.18;100.00;100651.13;5241721;28;20055;-78
2022/03/29 00:50:47;;;;;;;25.40;13.93;;;;;;;6.92;100.00;100661.19;5252870;28;20035;-78
2022/03/29 00:53:18;;;;;;;23.33;13.85;;;;;;;6.98;100.00;100654.13;5252625;28;20048;-78
2022/03/29 00:55:50;;;;;;;26.00;14.23;;;;;;;7.14;100.00;100650.31;5257533;28;20067;-78
2022/03/29 00:58:21;;;;;;;24.23;13.48;;;;;;;7.04;100.00;100640.13;5257286;28;20016;-78
2022/03/29 01:00:54;;;;;;;25.52;14.82;;;;;;;6.94;100.00;100649.03;5256220;28;20043;-78
2022/03/29 01:03:25;;;;;;;28.48;15.35;;;;;;;6.95;100.00;100653.34;5254292;28;20025;-78
2022/03/29 01:05:56;;;;;;;28.23;14.93;;;;;;;7.13;100.00;100629.56;5257430;28;20086;-78
2022/03/29 01:08:27;;;;;;;28.95;14.95;;;;;;;7.12;100.00;100627.88;5255460;28;20028;-78
2022/03/29 01:10:57;;;;;;;24.45;15.25;;;;;;;7.13;100.00;100627.81;5257519;28;20392;-78
2022/03/29 01:13:28;;;;;;;26.63;14.93;;;;;;;7.08;100.00;100628.81;5257882;28;20410;-78
2022/03/29 01:17:38;;;;;;;27.83;15.30;;;;;;;7.20;100.00;100616.44;5257819;28;20032;-78
2022/03/29 01:18:50;;;;;;;25.75;14.80;;;;;;;7.07;100.00;100621.91;5258261;28;20029;-78
2022/03/29 01:21:25;;;;;;;27.70;14.57;;;;;;;7.18;100.00;100615.59;5256852;28;20103;-78
2022/03/29 01:23:55;;;;;;;25.67;15.35;;;;;;;7.14;100.00;100619.13;5257060;28;20027;-78
2022/03/29 01:26:26;;;;;;;28.20;16.25;;;;;;;6.96;100.00;100618.69;5256031;28;20033;-78
2022/03/29 01:28:57;;;;;;;29.63;16.75;;;;;;;7.05;100.00;100619.34;5264088;28;20027;-78
2022/03/29 01:31:31;;;;;;;28.55;15.60;;;;;;;7.08;100.00;100619.28;5255274;28;20032;-78
2022/03/29 01:34:03;;;;;;;29.58;16.70;;;;;;;7.03;100.00;100615.91;5257193;28;20027;-78
2022/03/29 01:36:34;;;;;;;28.25;15.80;;;;;;;7.09;100.00;100620.13;5254914;28;20024;-78
2022/03/29 01:39:04;;;;;;;29.65;16.63;;;;;;;6.98;100.00;100617.78;5258414;28;20051;-78
2022/03/29 01:41:34;;;;;;;28.38;16.55;;;;;;;6.97;100.00;100616.03;5257846;28;20066;-78
2022/03/29 01:44:09;;;;;;;33.53;16.58;;;;;;;6.99;100.00;100616.00;5254685;28;20052;-78
2022/03/29 01:46:40;;;;;;;28.88;16.30;;;;;;;6.92;100.00;100610.06;5254307;28;20035;-78
2022/03/29 01:49:10;;;;;;;29.30;15.43;;;;;;;6.78;100.00;100608.66;5257058;28;20040;-78
2022/03/29 01:51:40;;;;;;;32.60;16.88;;;;;;;6.87;100.00;100608.44;5253832;28;20070;-78
2022/03/29 01:54:11;;;;;;;31.25;17.10;;;;;;;6.89;100.00;100604.09;5257562;28;20031;-78
2022/03/29 01:56:41;;;;;;;31.08;16.55;;;;;;;6.70;100.00;100616.59;5255806;28;20032;-78
2022/03/29 01:59:11;;;;;;;30.90;16.52;;;;;;;6.75;100.00;100603.53;5244564;28;20020;-78
2022/03/29 02:01:47;;;;;;;29.65;17.25;;;;;;;6.79;100.00;100606.00;5253557;28;20160;-78
2022/03/29 02:04:17;;;;;;;30.20;17.60;;;;;;;6.76;100.00;100605.25;5256352;28;20036;-78
2022/03/29 02:06:48;;;;;;;29.65;17.23;;;;;;;6.75;100.00;100601.75;5254699;28;20024;-78
2022/03/29 02:09:18;;;;;;;30.55;17.58;;;;;;;6.94;100.00;100610.06;5257544;28;20720;-78
2022/03/29 02:11:48;;;;;;;33.08;17.33;;;;;;;6.94;100.00;100602.25;5256040;28;20030;-78
2022/03/29 02:14:18;;;;;;;29.20;16.75;;;;;;;6.96;100.00;100611.72;5255224;28;20429;-78
2022/03/29 02:16:49;;;;;;;37.70;17.35;;;;;;;7.03;100.00;100613.31;5255772;28;20020;-78
2022/03/29 02:19:19;;;;;;;34.35;17.55;;;;;;;6.98;100.00;100602.19;5254987;28;20112;-78
2022/03/29 02:21:49;;;;;;;30.70;17.15;;;;;;;7.01;100.00;100607.31;5255298;28;20032;-78
2022/03/29 02:24:19;;;;;;;33.20;17.52;;;;;;;7.18;100.00;100609.53;5236958;28;20043;-78
2022/03/29 02:26:50;;;;;;;33.63;17.95;;;;;;;7.07;100.00;100609.75;5257093;28;20093;-78
2022/03/29 02:29:20;;;;;;;30.05;17.35;;;;;;;6.99;100.00;100608.22;5260700;28;20032;-78
2022/03/29 02:31:50;;;;;;;32.65;18.40;;;;;;;7.05;100.00;100600.28;5253684;28;20039;-78
2022/03/29 02:34:21;;;;;;;28.73;17.63;;;;;;;6.91;100.00;100600.56;5255165;28;20035;-78
2022/03/29 02:36:51;;;;;;;31.27;17.90;;;;;;;6.92;100.00;100596.25;5254027;28;20539;-79
2022/03/29 02:39:21;;;;;;;33.58;18.45;;;;;;;6.89;100.00;100594.56;5257012;28;20028;-79
2022/03/29 02:41:52;;;;;;;34.30;17.70;;;;;;;7.06;100.00;100589.88;5254519;28;20297;-79
2022/03/29 02:44:22;;;;;;;31.73;18.30;;;;;;;7.16;100.00;100586.19;5254301;28;20048;-79
2022/03/29 02:46:53;;;;;;;33.30;19.00;;;;;;;7.17;100.00;100587.91;5253484;28;20417;-79
2022/03/29 02:49:25;;;;;;;34.08;18.77;;;;;;;7.22;100.00;100586.91;5254545;28;20021;-80
2022/03/29 02:51:55;;;;;;;35.00;18.60;;;;;;;7.09;100.00;100586.38;5253403;28;20036;-79
2022/03/29 02:54:25;;;;;;;32.58;18.35;;;;;;;6.96;100.00;100579.72;5254948;28;20028;-79
2022/03/29 02:56:56;;;;;;;30.73;17.15;;;;;;;7.01;100.00;100577.84;5253888;28;20028;-79
2022/03/29 02:59:26;;;;;;;35.80;18.35;;;;;;;7.01;100.00;100580.47;5259343;28;20062;-79
2022/03/29 03:01:57;;;;;;;35.10;18.40;;;;;;;7.01;100.00;100576.13;5254120;28;20036;-79
2022/03/29 03:04:27;;;;;;;35.90;18.15;;;;;;;7.05;100.00;100582.97;5253074;28;20034;-79
2022/03/29 03:06:57;;;;;;;33.40;18.48;;;;;;;7.08;100.00;100576.84;5253970;28;20032;-78
2022/03/29 03:09:27;;;;;;;34.97;18.67;;;;;;;7.10;100.00;100570.72;5255386;28;20032;-79
2022/03/29 03:11:58;;;;;;;35.00;17.92;;;;;;;6.99;100.00;100571.84;5252696;28;20032;-79
2022/03/29 03:14:28;;;;;;;35.08;18.98;;;;;;;6.91;100.00;100576.34;5254893;28;20024;-78
2022/03/29 03:16:59;;;;;;;34.80;18.60;;;;;;;6.93;100.00;100571.97;5253534;28;20020;-78
2022/03/29 03:19:29;;;;;;;34.13;18.80;;;;;;;6.96;100.00;100569.31;5254959;28;20501;-78
2022/03/29 03:21:59;;;;;;;35.87;19.27;;;;;;;6.90;100.00;100572.06;5252426;28;20043;-78
2022/03/29 03:24:30;;;;;;;37.30;20.45;;;;;;;6.91;100.00;100573.75;5255419;28;20304;-78
2022/03/29 03:27:00;;;;;;;40.85;20.75;;;;;;;6.88;100.00;100568.59;5255358;28;20042;-78
2022/03/29 03:29:30;;;;;;;35.72;19.98;;;;;;;6.85;100.00;100564.34;5259498;28;20488;-78
2022/03/29 03:32:00;;;;;;;40.00;20.67;;;;;;;6.95;100.00;100567.59;5255034;28;20035;-78
2022/03/29 03:34:31;;;;;;;37.22;21.00;;;;;;;6.97;100.00;100564.06;5252568;28;20402;-78
2022/03/29 03:37:03;;;;;;;34.63;21.10;;;;;;;6.95;100.00;100572.81;5255391;28;20028;-78
2022/03/29 03:39:36;;;;;;;37.55;21.83;;;;;;;6.95;100.00;100567.59;5256175;28;20028;-78
2022/03/29 03:42:11;;;;;;;38.53;21.63;;;;;;;6.91;100.00;100561.63;5251551;28;20036;-78
2022/03/29 03:44:41;;;;;;;42.27;22.73;;;;;;;6.99;100.00;100561.44;5252213;28;20025;-78
2022/03/29 03:47:12;;;;;;;41.58;22.27;;;;;;;6.99;100.00;100556.25;5255239;28;20032;-78
2022/03/29 03:49:42;;;;;;;37.92;20.55;;;;;;;6.87;100.00;100557.38;5252143;28;20025;-78
2022/03/29 03:52:12;;;;;;;41.47;21.52;;;;;;;7.03;100.00;100553.56;5254057;28;20047;-79
2022/03/29 03:54:43;;;;;;;41.17;22.75;;;;;;;6.88;100.00;100553.03;5250509;28;20440;-79
2022/03/29 03:57:14;;;;;;;39.80;21.40;;;;;;;6.93;100.00;100554.63;5254323;28;20483;-79
2022/03/29 03:59:48;;;;;;;40.25;20.90;;;;;;;6.92;100.00;100550.34;5257895;28;20059;-79
2022/03/29 04:02:19;;;;;;;36.72;19.75;;;;;;;6.86;100.00;100552.19;5253129;28;20055;-79
2022/03/29 04:04:49;;;;;;;39.47;20.77;;;;;;;6.87;100.00;100551.31;5252243;28;20550;-79
2022/03/29 04:07:20;;;;;;;37.00;20.60;;;;;;;6.88;100.00;100555.63;5252667;28;20028;-79
2022/03/29 04:09:50;;;;;;;37.25;20.05;;;;;;;6.98;100.00;100549.34;5254413;28;20020;-79
2022/03/29 04:12:20;;;;;;;34.38;18.58;;;;;;;6.87;100.00;100539.19;5252304;28;20028;-79
2022/03/29 04:14:50;;;;;;;35.90;19.02;;;;;;;6.84;100.00;100546.19;5253160;28;20464;-78
2022/03/29 04:17:21;;;;;;;35.28;19.90;;;;;;;6.66;100.00;100539.66;5252388;28;20043;-78
2022/03/29 04:19:51;;;;;;;35.42;19.30;;;;;;;6.75;100.00;100534.25;5252113;28;20027;-79
2022/03/29 04:22:21;;;;;;;36.95;19.58;;;;;;;6.93;100.00;100535.63;5253746;28;20035;-79
2022/03/29 04:24:52;;;;;;;33.53;18.42;;;;;;;6.94;100.00;100519.16;5253045;28;20099;-79
2022/03/29 04:27:22;;;;;;;37.95;18.92;;;;;;;6.94;100.00;100522.56;5255806;28;20031;-78
2022/03/29 04:29:52;;;;;;;36.15;18.17;;;;;;;7.00;99.73;100521.59;5257704;28;20028;-79
2022/03/29 04:32:23;;;;;;;32.38;18.05;;;;;;;6.95;99.82;100519.09;5252589;28;20032;-79
2022/03/29 04:34:53;;;;;;;30.70;16.98;;;;;;;6.86;99.72;100518.44;5253310;28;20028;-79
2022/03/29 04:37:24;;;;;;;31.70;17.15;;;;;;;6.96;99.74;100507.81;5252867;28;20032;-78
2022/03/29 04:39:54;;;;;;;35.00;18.45;;;;;;;6.88;99.88;100516.66;5254786;28;20035;-79
2022/03/29 04:42:25;;;;;;;31.83;17.73;;;;;;;6.84;99.23;100510.69;5252608;28;20107;-78
2022/03/29 04:44:55;;;;;;;34.45;16.98;;;;;;;6.95;98.70;100513.06;5251615;28;20059;-79
2022/03/29 04:47:25;;;;;;;37.55;18.52;;;;;;;6.96;98.10;100507.81;5252750;28;20024;-79
2022/03/29 04:49:55;;;;;;;33.38;18.58;;;;;;;7.02;98.49;100509.41;5254261;28;20020;-79
2022/03/29 04:52:26;;;;;;;32.70;17.15;;;;;;;6.99;99.11;100509.50;5234033;28;20028;-79
2022/03/29 04:54:56;;;;;;;37.38;17.65;;;;;;;6.94;99.04;100513.94;5281440;22;20038;-78
2022/03/29 04:57:26;;;;;;;30.10;16.70;;;;;;;6.92;98.67;100515.72;5268743;28;20020;-79
2022/03/29 04:59:57;;;;;;;35.97;17.50;;;;;;;6.86;99.34;100508.91;5254034;28;20119;-79
2022/03/29 05:02:27;;;;;;;32.45;17.15;;;;;;;6.91;99.33;100511.41;5274195;28;20028;-79
2022/03/29 05:04:57;;;;;;;31.10;16.67;;;;;;;6.89;100.00;100506.25;5258059;28;20028;-78
2022/03/29 05:07:28;;;;;;;33.08;17.23;;;;;;;6.98;99.15;100510.38;5256657;28;20038;-79
2022/03/29 05:09:58;;;;;;;36.03;18.48;;;;;;;7.13;98.01;100504.84;5256416;28;20020;-78
2022/03/29 05:12:29;;;;;;;35.42;17.80;;;;;;;7.02;98.35;100505.09;5274894;28;20019;-78
2022/03/29 05:14:59;;;;;;;34.47;17.30;;;;;;;6.95;98.79;100506.09;5273523;28;20053;-79
2022/03/29 05:17:31;;;;;;;34.20;17.63;;;;;;;6.93;97.69;100494.91;5276309;28;20384;-80
2022/03/29 05:20:03;;;;;;;37.05;17.38;;;;;;;6.86;98.46;100502.84;5276633;28;20032;-80
2022/03/29 05:22:45;;;;;;;31.23;17.58;;;;;;;6.95;98.05;100502.66;5261380;28;20077;-80
2022/03/29 05:25:17;;;;;;;37.75;18.27;;;;;;;7.01;97.32;100487.78;5253245;28;20477;-80
2022/03/29 05:27:47;;;;;;;38.08;18.15;;;;;;;6.98;96.78;100490.47;5270960;28;20024;-80
2022/03/29 05:30:18;;;;;;;33.35;17.20;;;;;;;7.10;95.98;100489.34;5272258;28;20100;-80
2022/03/29 05:32:51;;;;;;;35.97;17.52;;;;;;;7.03;95.54;100490.34;5257465;28;20123;-81
2022/03/29 05:35:21;;;;;;;35.55;18.50;;;;;;;7.09;95.42;100495.41;5269890;28;20028;-80
2022/03/29 05:37:51;;;;;;;33.38;17.85;;;;;;;7.04;96.36;100492.06;5272522;28;20101;-81
2022/03/29 05:40:22;;;;;;;33.10;17.98;;;;;;;7.04;96.01;100492.06;5270597;28;20034;-80
2022/03/29 05:42:52;;;;;;;34.17;17.75;;;;;;;6.98;96.31;100497.41;5277738;28;20057;-80
2022/03/29 05:45:23;;;;;;;31.58;17.83;;;;;;;6.98;96.24;100487.88;5257789;28;20374;-81
2022/03/29 05:50:42;;;;;;;37.20;18.00;;;;;;;7.13;96.42;100494.44;5271138;28;20389;-81
2022/03/29 05:53:12;;;;;;;32.53;17.23;;;;;;;7.15;96.40;100492.66;5278638;28;20028;-80
2022/03/29 05:55:43;;;;;;;33.65;16.83;;;;;;;7.10;97.44;100489.34;5273821;28;20024;-80
2022/03/29 05:58:15;;;;;;;37.50;17.63;;;;;;;7.15;97.26;100479.69;5274513;28;20076;-80
2022/03/29 06:00:46;;;;;;;30.42;16.77;;;;;;;7.11;96.93;100485.84;5260226;28;20613;-80
2022/03/29 06:03:16;;;;;;;37.00;17.30;;;;;;;7.10;96.84;100482.38;5275522;28;20059;-80
2022/03/29 06:05:46;;;;;;;31.70;16.52;;;;;;;7.13;97.17;100482.31;5259171;28;20396;-81
2022/03/29 06:08:17;;;;;;;33.30;16.58;;;;;;;6.98;97.03;100481.81;5260017;28;20027;-80
2022/03/29 06:10:47;;;;;;;36.80;17.50;;;;;;;6.97;97.39;100485.28;5280093;28;20397;-79
2022/03/29 06:13:18;;;;;;;37.47;16.95;;;;;;;7.07;96.93;100481.63;5260469;28;20038;-79
2022/03/29 06:15:49;;;;;;;32.33;17.33;;;;;;;7.21;96.28;100498.59;5246938;28;20036;-80
2022/03/29 06:18:20;;;;;;;38.35;17.65;;;;;;;7.17;96.53;100498.69;5269557;28;20085;-79
2022/03/29 06:20:51;;;;;;;32.65;17.17;;;;;;;7.08;97.04;100494.56;5272757;28;20385;-80
2022/03/29 06:23:21;;;;;;;36.55;18.33;;;;;;;7.20;96.99;100496.88;5266602;28;20038;-80
2022/03/29 06:25:54;;;;;;;33.33;17.08;;;;;;;7.22;95.87;100499.41;5260063;28;20076;-80
2022/03/29 06:28:24;;;;;;;32.53;16.77;;;;;;;7.16;96.72;100510.84;5272795;28;20054;-80
2022/03/29 06:30:56;;;;;;;35.78;17.10;;;;;;;7.04;96.50;100507.63;5275043;28;20051;-79
2022/03/29 06:33:26;;;;;;;33.65;18.00;;;;;;;7.12;96.60;100510.94;5277900;28;20073;-80
2022/03/29 06:35:56;;;;;;;39.15;19.15;;;;;;;7.21;95.98;100503.78;5276919;28;20306;-79
2022/03/29 06:38:31;;;;;;;32.92;17.00;;;;;;;7.32;95.42;100509.59;5257435;28;20393;-80
2022/03/29 06:41:01;;;;;;;36.28;17.58;;;;;;;7.38;95.71;100501.63;5276422;28;20024;-80
2022/03/29 06:43:34;;;;;;;35.85;17.92;;;;;;;7.36;95.39;100500.81;5278420;28;20038;-80
2022/03/29 06:46:07;;;;;;;38.67;18.58;;;;;;;7.45;95.63;100500.59;5274256;28;20152;-80
2022/03/29 06:48:41;;;;;;;36.70;19.23;;;;;;;7.53;94.89;100498.69;5268259;28;20035;-81
2022/03/29 06:51:13;;;;;;;;;;;;;;;7.60;94.33;100511.50;5275602;28;20050;-80
2022/03/29 06:53:44;;;;;;;33.95;18.00;;;;;;;7.35;95.31;100510.34;5274454;28;20006;-80
2022/03/29 06:56:16;;;;;;;40.28;18.70;;;;;;;7.34;95.68;100516.44;5270762;28;20023;-81
2022/03/29 06:58:47;;;;;;;37.83;18.25;;;;;;;7.42;95.53;100517.13;5269397;28;20032;-80
2022/03/29 07:01:17;;;;;;;37.95;18.80;;;;;;;7.27;95.87;100514.03;5273586;28;20028;-80
2022/03/29 07:03:48;;;;;;;35.47;18.85;;;;;;;7.41;95.70;100511.97;5256846;28;20024;-80
2022/03/29 07:06:18;;;;;;;40.00;19.15;;;;;;;7.28;95.38;100510.53;5258825;28;20027;-80
2022/03/29 07:11:38;;;;;;;38.30;19.30;;;;;;;7.19;96.00;100504.69;5269896;28;20127;-80
2022/03/29 07:14:08;;;;;;;37.67;19.45;;;;;;;7.29;95.80;100505.31;5259858;28;20472;-80
2022/03/29 07:16:41;;;;;;;38.63;19.13;;;;;;;7.30;95.44;100507.03;5274708;28;20024;-80
2022/03/29 07:19:11;;;;;;;36.10;18.63;;;;;;;7.46;95.73;100502.28;5260195;28;20028;-80
2022/03/29 07:21:43;;;;;;;36.90;20.08;;;;;;;7.58;94.40;100496.81;5256974;28;20032;-80
2022/03/29 07:24:14;;;;;;;39.20;18.77;;;;;;;7.50;94.41;100493.56;5257751;28;20031;-79
2022/03/29 07:26:45;;;;;;;39.25;19.92;;;;;;;7.48;94.63;100490.97;5265265;28;20024;-80
2022/03/29 07:29:15;;;;;;;40.65;20.15;;;;;;;7.52;93.86;100495.22;5270518;28;20024;-80
2022/03/29 07:31:45;;;;;;;38.88;19.10;;;;;;;7.34;94.64;100494.81;5276820;28;20445;-80
2022/03/29 07:34:16;;;;;;;42.03;20.58;;;;;;;7.48;94.16;100492.72;5275077;28;20032;-81
2022/03/29 07:36:48;;;;;;;42.17;20.13;;;;;;;7.48;94.51;100496.19;5252483;28;20157;-80
2022/03/29 07:39:19;;;;;;;36.53;20.20;;;;;;;7.53;94.22;100494.31;5264567;28;20070;-80
2022/03/29 07:41:49;;;;;;;39.72;19.85;;;;;;;7.69;93.73;100494.81;5274829;28;20318;-79
2022/03/29 07:44:19;;;;;;;43.00;19.52;;;;;;;7.67;92.63;100488.78;5272091;28;20043;-80
2022/03/29 07:46:50;;;;;;;41.28;19.67;;;;;;;7.52;93.12;100497.81;5251466;28;20024;-79
2022/03/29 07:49:20;;;;;;;38.42;18.25;;;;;;;7.62;92.94;100493.22;5275278;28;20486;-80
2022/03/29 07:51:51;;;;;;;40.85;19.17;;;;;;;7.55;92.13;100492.53;5275478;28;20314;-80
2022/03/29 07:54:21;;;;;;;41.63;19.35;;;;;;;7.59;91.59;100491.59;5253580;28;20032;-80
2022/03/29 07:56:51;;;;;;;37.72;18.50;;;;;;;7.64;90.55;100492.31;5245847;28;20026;-80
2022/03/29 07:59:22;;;;;;;36.33;18.60;;;;;;;7.70;90.73;100497.34;5251512;28;20027;-80
2022/03/29 08:01:54;;;;;;;39.10;18.73;;;;;;;7.79;90.92;100491.94;5274619;28;20039;-80
2022/03/29 08:04:24;;;;;;;37.55;18.45;;;;;;;8.00;90.14;100490.50;5257080;28;20634;-80
2022/03/29 08:06:54;;;;;;;40.00;18.67;;;;;;;8.03;89.62;100487.84;5275493;28;20023;-80
2022/03/29 08:09:26;;;;;;;39.72;18.50;;;;;;;7.90;89.23;100474.28;5275458;28;20103;-80
2022/03/29 08:11:56;;;;;;;36.42;17.80;;;;;;;7.90;88.97;100479.47;5255323;28;20397;-80
2022/03/29 08:14:27;;;;;;;42.92;18.52;;;;;;;7.96;89.06;100471.53;5257149;28;20171;-80
2022/03/29 08:16:57;;;;;;;36.97;18.80;;;;;;;8.00;88.83;100470.53;5274029;28;20404;-80
2022/03/29 08:19:27;;;;;;;37.13;18.13;;;;;;;7.75;89.51;100469.50;5275562;28;20039;-80
2022/03/29 08:21:58;;;;;;;35.90;17.67;;;;;;;7.95;89.17;100466.34;5274996;28;20107;-80
2022/03/29 08:24:28;;;;;;;42.58;19.63;;;;;;;7.94;88.68;100462.91;5252693;28;20044;-80
2022/03/29 08:26:58;;;;;;;34.78;17.48;;;;;;;7.98;88.55;100466.25;5274963;28;20016;-80
2022/03/29 08:29:28;;;;;;;36.00;17.95;;;;;;;8.10;88.60;100460.72;5268836;28;20107;-80
2022/03/29 08:31:59;;;;;;;38.83;18.57;;;;;;;8.01;87.89;100459.22;5274721;28;20250;-80
2022/03/29 08:34:29;;;;;;;36.00;17.85;;;;;;;8.03;87.95;100467.84;5272655;28;20353;-80
2022/03/29 08:36:59;;;;;;;44.42;20.95;;;;;;;7.99;88.29;100465.38;5274089;28;20555;-80
2022/03/29 08:39:30;;;;;;;37.95;18.38;;;;;;;7.93;88.43;100456.00;5271517;28;20036;-80
2022/03/29 08:42:03;;;;;;;42.80;19.88;;;;;;;7.88;89.73;100459.63;5269260;28;20028;-80
2022/03/29 08:44:34;;;;;;;40.75;19.48;;;;;;;8.09;89.34;100454.69;5252717;28;20107;-80
2022/03/29 08:47:09;;;;;;;38.85;19.35;;;;;;;7.99;88.87;100447.16;5256765;28;20023;-81
2022/03/29 08:49:40;;;;;;;40.28;18.85;;;;;;;8.16;89.79;100445.81;5251146;28;20028;-81
2022/03/29 08:52:11;;;;;;;39.88;18.33;;;;;;;8.42;88.02;100438.13;5259454;28;20058;-81
2022/03/29 08:54:42;;;;;;;41.97;18.88;;;;;;;8.61;86.94;100446.25;5253845;28;20489;-81
2022/03/29 08:57:13;;;;;;;36.50;18.60;;;;;;;8.43;86.33;100447.66;5252495;28;20032;-81
2022/03/29 08:59:43;;;;;;;41.33;19.25;;;;;;;8.55;85.93;100444.69;5282240;28;20058;-80
2022/03/29 09:02:16;;;;;;;41.67;19.38;;;;;;;8.39;86.62;100440.81;5260274;28;20028;-80
2022/03/29 09:05:12;;;;;;;40.85;20.27;;;;;;;8.36;87.28;100443.53;5261870;28;20114;-81
2022/03/29 09:07:46;;;;;;;42.25;19.15;;;;;;;8.32;87.55;100449.72;5275397;28;20389;-80
2022/03/29 09:10:22;;;;;;;37.42;19.65;;;;;;;8.40;86.77;100447.72;5277281;28;20044;-80
2022/03/29 09:12:52;;;;;;;40.67;19.95;;;;;;;8.43;86.60;100439.00;5275668;28;20020;-81
2022/03/29 09:15:35;;;;;;;40.92;20.42;;;;;;;8.47;87.22;100443.22;5256523;28;20020;-81
2022/03/29 09:18:09;;;;;;;42.88;20.40;;;;;;;8.39;86.89;100437.38;5271044;28;20028;-81
2022/03/29 09:20:40;;;;;;;37.33;19.83;;;;;;;8.60;87.27;100440.22;5268492;28;20061;-81
2022/03/29 09:23:18;;;;;;;41.78;19.98;;;;;;;8.74;86.14;100443.25;5252879;28;20024;-81
2022/03/29 09:25:49;;;;;;;45.28;19.60;;;;;;;8.83;85.57;100437.75;5247855;28;20036;-81
2022/03/29 09:28:22;;;;;;;41.17;20.80;;;;;;;8.86;86.04;100431.63;5247554;28;20035;-81
2022/03/29 09:30:53;;;;;;;41.42;20.98;;;;;;;9.01;84.80;100423.28;5260204;28;20023;-81
2022/03/29 09:33:29;;;;;;;37.17;19.05;;;;;;;8.75;85.70;100433.69;5279794;28;20032;-81
2022/03/29 09:36:14;;;;;;;42.05;20.83;;;;;;;8.90;83.83;100439.28;5278543;28;20020;-81
2022/03/29 09:38:47;;;;;;;41.65;20.48;;;;;;;9.01;84.20;100434.59;5249330;28;20039;-81
2022/03/29 09:41:29;;;;;;;42.55;20.75;;;;;;;8.93;83.75;100431.34;5255432;28;20035;-82
2022/03/29 09:44:07;;;;;;;39.75;19.90;;;;;;;9.18;83.42;100421.88;5262065;28;20504;-82
2022/03/29 09:46:54;;;;;;;46.30;20.88;;;;;;;9.33;82.75;100423.97;5254758;28;20237;-82
2022/03/29 09:49:26;;;;;;;38.20;19.63;;;;;;;9.01;83.32;100418.94;5279283;28;20024;-81
2022/03/29 09:52:11;;;;;;;41.72;21.15;;;;;;;9.34;83.39;100420.47;5261277;28;20020;-82
2022/03/29 09:54:42;;;;;;;36.33;19.67;;;;;;;9.56;81.40;100408.41;5275177;28;20473;-82
2022/03/29 09:57:12;;;;;;;45.78;22.88;;;;;;;9.67;81.70;100407.13;5259152;28;20035;-81
2022/03/29 09:59:49;;;;;;;39.38;20.15;;;;;;;9.28;81.02;100413.69;5277951;28;20023;-81
2022/03/29 10:02:19;;;;;;;45.10;23.52;;;;;;;9.32;82.68;100419.66;5260583;28;20034;-81
2022/03/29 10:04:50;;;;;;;44.17;22.38;;;;;;;9.67;80.77;100411.50;5278861;28;20032;-82
2022/03/29 10:07:20;;;;;;;39.85;19.88;;;;;;;9.78;80.17;100414.56;5261094;28;20034;-81
2022/03/29 10:09:51;;;;;;;44.33;22.35;;;;;;;9.80;80.68;100405.78;5258237;28;20027;-82
2022/03/29 10:12:23;;;;;;;37.10;19.33;;;;;;;9.70;80.95;100411.38;5280112;28;20051;-81
2022/03/29 10:14:56;;;;;;;41.10;19.77;;;;;;;10.02;80.55;100414.59;5279288;28;20020;-81
2022/03/29 10:17:28;;;;;;;42.40;21.58;;;;;;;10.20;78.69;100407.88;5279986;28;20051;-82
2022/03/29 10:20:24;;;;;;;38.58;19.83;;;;;;;10.30;78.30;100404.00;5260243;28;20035;-82
2022/03/29 10:22:56;;;;;;;37.63;18.92;;;;;;;10.03;77.67;100411.06;5252890;28;20050;-82
2022/03/29 10:25:28;;;;;;;41.88;22.02;;;;;;;10.35;77.82;100407.31;5278615;28;20040;-81
2022/03/29 10:28:00;;;;;;;35.00;19.02;;;;;;;10.25;77.21;100401.56;5271488;28;20073;-81
2022/03/29 10:30:35;;;;;;;37.97;20.27;;;;;;;10.03;78.80;100403.25;5259500;28;20027;-81
2022/03/29 10:33:25;;;;;;;36.28;19.00;;;;;;;9.90;79.03;100404.56;5257618;28;20464;-81
2022/03/29 10:36:10;;;;;;;36.40;19.85;;;;;;;10.28;77.62;100396.22;5260307;28;20027;-81
2022/03/29 10:38:46;;;;;;;36.78;20.63;;;;;;;10.32;79.23;100387.38;5252857;28;20032;-81
2022/03/29 10:41:25;;;;;;;35.75;19.08;;;;;;;10.40;76.74;100389.69;5252254;28;20209;-81
2022/03/29 10:44:11;;;;;;;35.08;19.08;;;;;;;10.70;77.16;100380.69;5260087;28;20489;-81
2022/03/29 10:46:52;;;;;;;43.22;20.02;;;;;;;10.64;77.00;100373.94;5271694;28;20028;-82
2022/03/29 10:49:28;;;;;;;46.13;23.50;;;;;;;10.97;76.55;100369.09;5256005;28;20036;-81
2022/03/29 10:52:04;;;;;;;38.97;19.10;;;;;;;10.81;75.92;100366.28;5277510;28;20028;-81
2022/03/29 10:54:37;;;;;;;37.30;20.02;;;;;;;10.73;76.78;100364.88;5263370;28;20219;-81
2022/03/29 10:57:14;;;;;;;36.00;18.00;;;;;;;10.68;75.43;100358.97;5255235;28;20071;-80
2022/03/29 10:59:50;;;;;;;38.92;18.00;;;;;;;10.82;75.17;100356.69;5258335;28;20027;-77
2022/03/29 11:02:20;;;;;;;37.40;18.45;;;;;;;11.10;75.14;100348.47;5263548;28;20114;-79
2022/03/29 11:05:06;;;;;;;31.10;17.20;;;;;;;11.25;74.57;100353.09;5249879;28;20116;-79
2022/03/29 11:07:39;;;;;;;30.75;17.15;;;;;;;11.44;74.17;100347.94;5262639;28;20020;-78
2022/03/29 11:10:14;;;;;;;34.50;18.67;;;;;;;11.24;74.50;100335.69;5276091;28;20490;-81
2022/03/29 11:12:53;;;;;;;35.05;17.27;;;;;;;11.58;74.01;100335.97;5265348;28;20028;-78
2022/03/29 11:15:37;;;;;;;37.85;19.30;;;;;;;11.53;73.85;100337.06;5258048;28;20077;-78
2022/03/29 11:18:37;;;;;;;36.88;17.95;;;;;;;11.54;73.50;100328.28;5255015;28;20023;-81
2022/03/29 11:21:08;;;;;;;35.05;17.83;;;;;;;11.44;72.60;100322.59;5252931;28;20036;-78
2022/03/29 11:23:40;;;;;;;30.30;17.13;;;;;;;11.41;73.35;100322.75;5271213;28;20036;-81
2022/03/29 11:26:12;;;;;;;35.45;18.85;;;;;;;11.48;74.15;100321.56;5276486;28;20051;-79
2022/03/29 11:28:54;;;;;;;40.42;18.67;;;;;;;11.89;73.00;100318.00;5249098;28;20462;-82
2022/03/29 11:31:36;;;;;;;32.42;18.08;;;;;;;11.86;71.95;100315.53;5254577;28;20035;-80
2022/03/29 11:34:09;;;;;;;32.45;17.27;;;;;;;11.96;72.38;100305.50;5274570;28;20087;-79
2022/03/29 11:36:40;;;;;;;32.13;17.23;;;;;;;11.57;72.86;100315.97;5273994;28;20030;-78
2022/03/29 11:39:21;;;;;;;31.50;17.52;;;;;;;11.24;73.55;100314.75;5256720;28;20099;-78
2022/03/29 11:41:53;;;;;;;39.72;18.58;;;;;;;11.25;73.73;100313.84;5279581;28;20520;-80